createdAt,value
2022-08-05T00:01:20.521Z,50.34
2022-08-05T00:04:00.035Z,50.56
2022-08-05T00:06:36.147Z,50.65
2022-08-05T00:09:12.841Z,50.59
2022-08-05T00:11:49.177Z,50.86
2022-08-05T00:14:29.283Z,51.17
2022-08-05T00:17:02.980Z,51.25
2022-08-05T00:19:45.585Z,51.33
2022-08-05T00:22:30.211Z,51.48
2022-08-05T00:25:02.322Z,51.33
2022-08-05T00:27:39.610Z,51.07
2022-08-05T00:30:15.159Z,51.53
2022-08-05T00:32:45.754Z,51.39
2022-08-05T00:35:17.360Z,51.73
2022-08-05T00:37:57.181Z,51.88
2022-08-05T00:40:29.540Z,51.57
2022-08-05T00:43:02.132Z,51.97
2022-08-05T00:45:38.325Z,52.19
2022-08-05T00:48:27.416Z,51.93
2022-08-05T00:51:09.042Z,52.55
2022-08-05T00:54:02.255Z,52.09
2022-08-05T00:56:36.901Z,52.79
2022-08-05T00:59:09.727Z,52.72
2022-08-05T01:01:48.645Z,52.80
2022-08-05T01:04:26.625Z,52.86
2022-08-05T01:07:02.513Z,53.24
2022-08-05T01:09:40.124Z,53.35
2022-08-05T01:12:23.112Z,53.92
2022-08-05T01:15:04.135Z,53.73
2022-08-05T01:17:44.184Z,53.74
2022-08-05T01:20:22.679Z,53.68
2022-08-05T01:23:15.196Z,54.02
2022-08-05T01:26:04.903Z,54.14
2022-08-05T01:28:50.645Z,54.24
2022-08-05T01:31:28.265Z,54.83
2022-08-05T01:34:03.087Z,55.09
2022-08-05T01:36:42.292Z,54.92
2022-08-05T01:39:47.252Z,54.96
2022-08-05T01:42:15.323Z,55.67
2022-08-05T01:44:54.309Z,55.82
2022-08-05T01:47:38.785Z,56.23
2022-08-05T01:50:16.046Z,56.35
2022-08-05T01:52:49.939Z,56.42
2022-08-05T01:55:25.566Z,56.91
2022-08-05T01:58:29.824Z,57.26
2022-08-05T02:00:57.844Z,57.01
2022-08-05T02:03:34.196Z,57.15
2022-08-05T02:06:24.255Z,57.21
2022-08-05T02:08:59.696Z,56.99
2022-08-05T02:11:37.504Z,56.96
2022-08-05T02:14:17.100Z,57.37
2022-08-05T02:16:55.203Z,57.64
2022-08-05T02:19:33.469Z,57.88
2022-08-05T02:22:25.709Z,57.74
2022-08-05T02:25:06.492Z,57.72
2022-08-05T02:27:59.645Z,57.79
2022-08-05T02:30:51.658Z,57.76
2022-08-05T02:33:36.233Z,58.19
2022-08-05T02:36:15.592Z,58.24
2022-08-05T02:38:53.201Z,57.85
2022-08-05T02:41:43.039Z,57.99
2022-08-05T02:44:27.293Z,58.55
2022-08-05T02:47:01.077Z,58.76
2022-08-05T02:49:40.668Z,58.88
2022-08-05T02:52:29.952Z,58.91
2022-08-05T02:55:05.053Z,58.83
2022-08-05T02:58:10.177Z,59.21
2022-08-05T03:00:30.901Z,58.82
2022-08-05T03:03:10.374Z,59.40
2022-08-05T03:06:55.816Z,59.10
2022-08-05T03:08:35.534Z,59.76
2022-08-05T03:11:56.973Z,59.74
2022-08-05T03:14:09.397Z,59.50
2022-08-05T03:16:45.361Z,59.58
2022-08-05T03:19:33.980Z,59.39
2022-08-05T03:22:15.998Z,59.48
2022-08-05T03:24:52.518Z,59.88
2022-08-05T03:27:29.726Z,59.44
2022-08-05T03:30:18.326Z,59.62
2022-08-05T03:32:51.384Z,59.68
2022-08-05T03:35:23.535Z,59.55
2022-08-05T03:37:59.810Z,59.47
2022-08-05T03:40:32.407Z,59.03
2022-08-05T03:43:58.840Z,58.96
2022-08-05T03:46:00.302Z,58.77
2022-08-05T03:48:36.806Z,59.50
2022-08-05T03:52:38.009Z,59.73
2022-08-05T03:55:50.588Z,59.86
2022-08-05T03:57:16.695Z,59.66
2022-08-05T03:59:57.534Z,59.58
2022-08-05T04:02:38.245Z,59.52
2022-08-05T04:05:12.334Z,59.49
2022-08-05T04:07:57.301Z,60.03
2022-08-05T04:10:38.147Z,60.43
2022-08-05T04:13:09.355Z,60.47
2022-08-05T04:16:02.889Z,60.47
2022-08-05T04:18:39.156Z,60.72
2022-08-05T04:21:10.871Z,61.00
2022-08-05T04:26:40.814Z,61.11
2022-08-05T04:29:14.746Z,60.95
2022-08-05T04:34:32.284Z,61.16
2022-08-05T04:37:03.565Z,60.60
2022-08-05T04:39:35.450Z,60.35
2022-08-05T04:42:16.241Z,60.29
2022-08-05T04:44:47.781Z,60.24
2022-08-05T04:47:20.016Z,59.90
2022-08-05T04:50:02.960Z,59.55
2022-08-05T04:52:41.528Z,59.26
2022-08-05T04:55:15.440Z,59.22
2022-08-05T04:57:57.368Z,58.95
2022-08-05T05:00:29.676Z,58.63
2022-08-05T05:03:03.928Z,58.29
2022-08-05T05:06:39.850Z,57.90
2022-08-05T05:08:30.465Z,57.54
2022-08-05T05:11:04.220Z,56.88
2022-08-05T05:13:42.956Z,55.60
2022-08-05T05:16:19.797Z,54.99
2022-08-05T05:19:09.190Z,54.01
2022-08-05T05:21:41.120Z,53.36
2022-08-05T05:24:11.572Z,51.95
2022-08-05T05:26:43.209Z,51.43
2022-08-05T05:29:19.449Z,50.89
2022-08-05T05:31:52.120Z,50.75
2022-08-05T05:34:26.605Z,50.59
2022-08-05T05:36:57.204Z,50.65
2022-08-05T05:39:34.388Z,50.02
2022-08-05T05:42:07.346Z,49.89
2022-08-05T05:44:46.058Z,50.03
2022-08-05T05:47:22.002Z,49.55
2022-08-05T05:49:56.744Z,49.52
2022-08-05T05:52:28.433Z,49.96
2022-08-05T05:55:07.378Z,50.20
2022-08-05T05:57:52.862Z,50.31
2022-08-05T06:00:31.465Z,50.11
2022-08-05T06:03:28.281Z,50.52
2022-08-05T06:05:55.538Z,50.24
2022-08-05T06:08:31.624Z,50.56
2022-08-05T06:11:04.082Z,50.33
2022-08-05T06:13:40.870Z,50.41
2022-08-05T06:16:28.742Z,50.35
2022-08-05T06:19:05.947Z,49.81
2022-08-05T06:21:41.749Z,49.49
2022-08-05T06:24:25.786Z,49.13
2022-08-05T06:26:57.730Z,48.80
2022-08-05T06:29:46.437Z,48.12
2022-08-05T06:32:26.358Z,46.95
2022-08-05T06:35:05.831Z,46.56
2022-08-05T06:37:56.225Z,46.43
2022-08-05T06:40:32.385Z,45.71
2022-08-05T06:43:02.565Z,44.97
2022-08-05T06:45:44.429Z,44.38
2022-08-05T06:48:53.574Z,44.73
2022-08-05T06:51:22.810Z,45.00
2022-08-05T06:54:01.891Z,44.76
2022-08-05T06:56:36.332Z,44.13
2022-08-05T06:59:09.594Z,43.68
2022-08-05T07:01:44.867Z,43.30
2022-08-05T07:04:20.027Z,42.42
2022-08-05T07:06:53.144Z,42.51
2022-08-05T07:09:24.928Z,42.79
2022-08-05T07:11:56.611Z,42.58
2022-08-05T07:14:49.735Z,42.44
2022-08-05T07:18:08.337Z,42.39
2022-08-05T07:20:32.827Z,42.46
2022-08-05T07:23:25.945Z,42.54
2022-08-05T07:26:00.966Z,42.41
2022-08-05T07:28:33.902Z,41.92
2022-08-05T07:31:04.619Z,42.18
2022-08-05T07:33:37.358Z,42.29
2022-08-05T07:36:21.524Z,41.69
2022-08-05T07:38:55.005Z,41.23
2022-08-05T07:42:12.976Z,41.79
2022-08-05T07:44:19.722Z,41.15
2022-08-05T07:46:50.897Z,41.00
2022-08-05T07:49:22.000Z,41.11
2022-08-05T07:51:55.359Z,41.58
2022-08-05T07:54:31.537Z,41.79
2022-08-05T07:57:16.927Z,42.15
2022-08-05T07:59:56.462Z,42.24
2022-08-05T08:02:30.868Z,41.63
2022-08-05T08:05:02.115Z,41.10
2022-08-05T08:07:39.601Z,41.56
2022-08-05T08:10:26.985Z,40.80
2022-08-05T08:12:58.558Z,41.32
2022-08-05T08:16:33.619Z,40.64
2022-08-05T08:18:21.266Z,40.63
2022-08-05T08:21:03.134Z,40.91
2022-08-05T08:24:02.442Z,40.21
2022-08-05T08:26:29.779Z,40.03
2022-08-05T08:29:21.780Z,40.38
2022-08-05T08:31:53.177Z,40.36
2022-08-05T08:34:30.557Z,40.34
2022-08-05T08:37:05.022Z,39.13
2022-08-05T08:39:44.240Z,39.82
2022-08-05T08:42:34.466Z,39.81
2022-08-05T08:45:26.562Z,39.36
2022-08-05T08:48:10.705Z,38.98
2022-08-05T08:51:22.405Z,39.78
2022-08-05T08:53:47.125Z,38.85
2022-08-05T08:56:22.280Z,39.02
2022-08-05T08:58:54.239Z,38.48
2022-08-05T09:01:24.691Z,38.61
2022-08-05T09:04:00.340Z,38.95
2022-08-05T09:06:32.677Z,38.35
2022-08-05T09:09:07.260Z,38.50
2022-08-05T09:11:51.525Z,38.05
2022-08-05T09:14:58.769Z,38.12
2022-08-05T09:17:40.737Z,38.88
2022-08-05T09:20:36.709Z,39.48
2022-08-05T09:23:09.577Z,39.12
2022-08-05T09:26:02.122Z,39.28
2022-08-05T09:28:35.193Z,38.77
2022-08-05T09:31:22.890Z,38.27
2022-08-05T09:34:01.790Z,38.75
2022-08-05T09:36:54.096Z,39.30
2022-08-05T09:39:45.908Z,38.65
2022-08-05T09:42:23.920Z,38.92
2022-08-05T09:46:05.155Z,38.93
2022-08-05T09:48:00.740Z,39.20
2022-08-05T09:50:44.585Z,39.30
2022-08-05T09:53:25.794Z,39.52
2022-08-05T09:56:13.275Z,38.85
2022-08-05T09:58:43.809Z,39.21
2022-08-05T10:01:32.440Z,39.13
2022-08-05T10:04:10.243Z,38.43
2022-08-05T10:06:59.454Z,37.36
2022-08-05T10:09:45.246Z,36.39
2022-08-05T10:12:30.562Z,36.55
2022-08-05T10:15:16.952Z,35.95
2022-08-05T10:18:22.566Z,35.58
2022-08-05T10:20:54.789Z,34.72
2022-08-05T10:23:55.450Z,35.40
2022-08-05T10:26:17.250Z,34.62
2022-08-05T10:28:51.565Z,36.26
2022-08-05T10:32:53.400Z,34.27
2022-08-05T10:34:25.857Z,34.91
2022-08-05T10:37:02.817Z,34.36
2022-08-05T10:40:03.116Z,34.45
2022-08-05T10:42:33.673Z,35.28
2022-08-05T10:45:21.076Z,36.10
2022-08-05T10:48:30.230Z,35.64
2022-08-05T10:51:21.649Z,34.76
2022-08-05T10:54:02.013Z,35.57
2022-08-05T10:56:53.155Z,34.96
2022-08-05T11:00:02.841Z,34.76
2022-08-05T11:02:37.586Z,35.79
2022-08-05T11:05:12.020Z,34.44
2022-08-05T11:08:03.089Z,33.73
2022-08-05T11:10:50.253Z,35.34
2022-08-05T11:13:59.369Z,34.37
2022-08-05T11:16:47.764Z,35.54
2022-08-05T11:20:10.665Z,35.31
2022-08-05T11:22:42.376Z,33.88
2022-08-05T11:26:04.518Z,33.67
2022-08-05T11:28:43.167Z,34.50
2022-08-05T11:31:57.115Z,34.80
2022-08-05T11:34:36.672Z,34.23
2022-08-05T11:38:28.778Z,33.58
2022-08-05T11:40:02.660Z,32.88
2022-08-05T11:42:37.825Z,34.06
2022-08-05T11:45:14.376Z,32.84
2022-08-05T11:48:00.746Z,34.35
2022-08-05T11:50:38.472Z,35.02
2022-08-05T11:53:09.809Z,33.72
2022-08-05T11:55:54.515Z,33.59
2022-08-05T11:58:35.084Z,34.33
2022-08-05T12:01:08.530Z,33.98
2022-08-05T12:03:55.763Z,34.32
2022-08-05T12:06:29.552Z,33.52
2022-08-05T12:09:00.976Z,32.43
2022-08-05T12:11:39.772Z,33.66
2022-08-05T12:18:00.702Z,32.06
2022-08-05T12:20:25.655Z,32.15
2022-08-05T12:23:10.341Z,32.53
2022-08-05T12:25:57.106Z,33.01
2022-08-05T12:28:34.614Z,32.33
2022-08-05T12:31:07.022Z,32.57
2022-08-05T12:33:39.057Z,32.67
2022-08-05T12:36:13.511Z,32.10
2022-08-05T12:38:46.389Z,32.12
2022-08-05T12:41:17.283Z,33.17
2022-08-05T12:43:53.808Z,31.52
2022-08-05T12:46:29.011Z,31.76
2022-08-05T12:49:13.086Z,31.30
2022-08-05T12:52:12.955Z,31.20
2022-08-05T12:54:38.430Z,31.08
2022-08-05T12:57:10.772Z,31.92
2022-08-05T13:01:56.894Z,31.51
2022-08-05T13:02:40.116Z,31.81
2022-08-05T13:05:14.546Z,31.89
2022-08-05T13:07:59.133Z,31.79
2022-08-05T13:10:33.491Z,32.43
2022-08-05T13:13:08.864Z,31.73
2022-08-05T13:15:50.830Z,31.55
2022-08-05T13:18:21.317Z,32.30
2022-08-05T13:20:55.398Z,32.33
2022-08-05T13:23:26.937Z,32.19
2022-08-05T13:25:59.228Z,32.07
2022-08-05T13:28:32.276Z,32.26
2022-08-05T13:31:11.231Z,32.23
2022-08-05T13:34:21.872Z,31.83
2022-08-05T13:36:36.660Z,32.40
2022-08-05T13:40:13.099Z,31.89
2022-08-05T13:41:58.301Z,32.31
2022-08-05T13:44:29.319Z,32.20
2022-08-05T13:47:02.456Z,31.76
2022-08-05T13:49:38.477Z,32.17
2022-08-05T13:52:19.471Z,32.08
2022-08-05T13:54:59.717Z,32.58
2022-08-05T13:57:50.988Z,32.93
2022-08-05T14:00:26.894Z,31.54
2022-08-05T14:02:58.224Z,32.19
2022-08-05T14:06:24.661Z,31.53
2022-08-05T14:08:27.671Z,30.03
2022-08-05T14:11:03.088Z,31.13
2022-08-05T14:13:48.704Z,31.87
2022-08-05T14:16:25.414Z,32.28
2022-08-05T14:18:55.339Z,32.21
2022-08-05T14:22:08.164Z,32.34
2022-08-05T14:24:19.483Z,32.59
2022-08-05T14:27:02.277Z,32.83
2022-08-05T14:29:40.089Z,33.91
2022-08-05T14:32:15.020Z,32.75
2022-08-05T14:34:46.003Z,32.86
2022-08-05T14:37:17.226Z,33.43
2022-08-05T14:39:50.284Z,33.69
2022-08-05T14:42:26.773Z,33.28
2022-08-05T14:44:56.858Z,33.77
2022-08-05T14:48:03.543Z,33.38
2022-08-05T14:50:19.319Z,34.12
2022-08-05T14:52:53.589Z,33.29
2022-08-05T14:55:38.952Z,33.12
2022-08-05T14:58:13.874Z,33.41
2022-08-05T15:00:58.300Z,34.15
2022-08-05T15:03:33.950Z,33.11
2022-08-05T15:06:15.207Z,32.22
2022-08-05T15:09:01.173Z,32.28
2022-08-05T15:11:51.611Z,32.67
2022-08-05T15:14:35.905Z,31.83
2022-08-05T15:17:44.390Z,33.15
2022-08-05T15:20:01.411Z,33.28
2022-08-05T15:22:31.483Z,33.75
2022-08-05T15:25:13.817Z,33.94
2022-08-05T15:27:52.247Z,33.65
2022-08-05T15:30:23.548Z,33.24
2022-08-05T15:32:55.555Z,34.20
2022-08-05T15:35:27.503Z,33.33
2022-08-05T15:38:33.441Z,33.39
2022-08-05T15:41:04.090Z,33.09
2022-08-05T15:43:47.892Z,32.83
2022-08-05T15:46:18.103Z,32.58
2022-08-05T15:48:53.094Z,32.49
2022-08-05T15:52:12.494Z,32.33
2022-08-05T15:54:21.927Z,32.67
2022-08-05T15:57:07.692Z,33.10
2022-08-05T15:59:39.810Z,32.93
2022-08-05T16:02:14.866Z,33.56
2022-08-05T16:04:50.309Z,33.00
2022-08-05T16:07:21.333Z,33.13
2022-08-05T16:09:52.995Z,34.57
2022-08-05T16:12:24.987Z,35.62
2022-08-05T16:14:57.024Z,37.49
2022-08-05T16:17:26.980Z,36.78
2022-08-05T16:20:05.265Z,36.34
2022-08-05T16:22:42.269Z,37.86
2022-08-05T16:25:13.224Z,37.71
2022-08-05T16:28:00.340Z,38.27
2022-08-05T16:30:36.071Z,36.97
2022-08-05T16:33:06.302Z,36.47
2022-08-05T16:35:42.066Z,36.83
2022-08-05T16:38:18.575Z,37.27
2022-08-05T16:41:00.109Z,37.60
2022-08-05T16:43:32.251Z,37.05
2022-08-05T16:46:13.057Z,37.19
2022-08-05T16:48:55.684Z,38.25
2022-08-05T16:51:30.720Z,38.44
2022-08-05T16:54:05.366Z,38.97
2022-08-05T16:56:44.698Z,39.40
2022-08-05T16:59:16.698Z,38.69
2022-08-05T17:01:53.837Z,38.95
2022-08-05T17:04:28.465Z,38.31
2022-08-05T17:07:01.874Z,38.63
2022-08-05T17:09:57.469Z,38.74
2022-08-05T17:12:51.485Z,39.72
2022-08-05T17:15:15.597Z,38.84
2022-08-05T17:17:55.101Z,38.51
2022-08-05T17:20:26.688Z,39.03
2022-08-05T17:22:57.553Z,39.51
2022-08-05T17:25:39.421Z,39.39
2022-08-05T17:28:10.538Z,40.21
2022-08-05T17:30:52.138Z,38.26
2022-08-05T17:33:23.761Z,37.85
2022-08-05T17:36:08.623Z,37.51
2022-08-05T17:38:44.321Z,37.38
2022-08-05T17:42:17.396Z,37.41
2022-08-05T17:44:06.581Z,37.78
2022-08-05T17:46:41.104Z,38.15
2022-08-05T17:49:14.890Z,38.46
2022-08-05T17:51:44.908Z,38.87
2022-08-05T17:54:17.381Z,39.47
2022-08-05T17:56:55.487Z,38.76
2022-08-05T17:59:28.592Z,38.41
2022-08-05T18:01:58.840Z,39.93
2022-08-05T18:04:31.947Z,39.94
2022-08-05T18:07:02.864Z,39.83
2022-08-05T18:09:59.543Z,40.41
2022-08-05T18:12:24.471Z,39.40
2022-08-05T18:14:56.068Z,39.69
2022-08-05T18:18:00.440Z,38.78
2022-08-05T18:20:19.689Z,39.99
2022-08-05T18:23:00.739Z,40.12
2022-08-05T18:25:45.000Z,40.05
2022-08-05T18:28:17.639Z,39.36
2022-08-05T18:30:52.501Z,39.39
2022-08-05T18:33:24.181Z,39.50
2022-08-05T18:36:03.983Z,39.66
2022-08-05T18:38:36.336Z,39.77
2022-08-05T18:41:56.634Z,39.69
2022-08-05T18:43:57.542Z,40.23
2022-08-05T18:46:36.338Z,39.16
2022-08-05T18:49:20.937Z,39.57
2022-08-05T18:52:10.961Z,40.20
2022-08-05T18:54:41.194Z,40.62
2022-08-05T18:57:17.987Z,40.27
2022-08-05T19:00:02.524Z,41.59
2022-08-05T19:02:34.047Z,39.78
2022-08-05T19:06:06.982Z,40.39
2022-08-05T19:07:58.242Z,41.16
2022-08-05T19:10:30.365Z,41.28
2022-08-05T19:13:00.997Z,41.00
2022-08-05T19:15:58.229Z,41.58
2022-08-05T19:18:24.313Z,41.97
2022-08-05T19:20:54.266Z,41.82
2022-08-05T19:24:06.562Z,42.09
2022-08-05T19:26:16.870Z,42.59
2022-08-05T19:28:47.720Z,42.89
2022-08-05T19:31:21.411Z,43.17
2022-08-05T19:33:56.928Z,43.55
2022-08-05T19:36:29.147Z,43.13
2022-08-05T19:39:02.247Z,42.70
2022-08-05T19:42:05.690Z,42.91
2022-08-05T19:44:24.700Z,42.80
2022-08-05T19:46:59.635Z,42.86
2022-08-05T19:49:29.959Z,43.69
2022-08-05T19:52:08.545Z,43.52
2022-08-05T19:54:52.407Z,43.93
2022-08-05T19:57:46.322Z,43.81
2022-08-05T20:00:13.479Z,43.79
2022-08-05T20:02:44.058Z,44.22
2022-08-05T20:05:24.398Z,44.71
2022-08-05T20:07:58.887Z,44.40
2022-08-05T20:10:30.910Z,44.85
2022-08-05T20:13:03.352Z,44.59
2022-08-05T20:15:52.134Z,44.69
2022-08-05T20:18:33.681Z,44.81
2022-08-05T20:21:07.022Z,45.32
2022-08-05T20:23:40.686Z,45.41
2022-08-05T20:26:23.329Z,45.71
2022-08-05T20:28:56.212Z,45.79
2022-08-05T20:31:42.727Z,45.48
2022-08-05T20:34:18.727Z,45.76
2022-08-05T20:36:50.074Z,45.63
2022-08-05T20:39:20.020Z,45.72
2022-08-05T20:41:51.277Z,45.73
2022-08-05T20:44:30.697Z,45.79
2022-08-05T20:47:03.555Z,45.82
2022-08-05T20:49:39.569Z,46.16
2022-08-05T20:52:10.760Z,46.27
2022-08-05T20:54:59.532Z,46.45
2022-08-05T20:57:43.439Z,46.47
2022-08-05T21:00:41.339Z,46.78
2022-08-05T21:03:08.361Z,46.76
2022-08-05T21:05:53.505Z,46.64
2022-08-05T21:08:26.860Z,47.04
2022-08-05T21:11:09.095Z,46.58
2022-08-05T21:13:47.431Z,46.46
2022-08-05T21:16:29.509Z,46.17
2022-08-05T21:19:02.234Z,45.62
2022-08-05T21:21:39.654Z,45.98
2022-08-05T21:24:20.491Z,45.91
2022-08-05T21:26:53.452Z,45.82
2022-08-05T21:29:31.397Z,45.98
2022-08-05T21:32:03.577Z,45.88
2022-08-05T21:34:35.513Z,46.23
2022-08-05T21:37:08.094Z,46.22
2022-08-05T21:39:38.431Z,46.08
2022-08-05T21:42:19.731Z,46.49
2022-08-05T21:45:02.611Z,46.43
2022-08-05T21:47:56.432Z,46.55
2022-08-05T21:50:23.686Z,46.92
2022-08-05T21:52:53.598Z,46.52
2022-08-05T21:56:01.645Z,46.91
2022-08-05T21:58:19.750Z,47.26
2022-08-05T22:00:51.758Z,47.48
2022-08-05T22:03:51.872Z,47.46
2022-08-05T22:06:12.341Z,47.80
2022-08-05T22:08:42.715Z,47.94
2022-08-05T22:11:15.498Z,48.47
2022-08-05T22:14:33.883Z,48.42
2022-08-05T22:16:41.693Z,48.54
2022-08-05T22:20:00.579Z,48.81
2022-08-05T22:22:10.802Z,48.96
2022-08-05T22:24:59.459Z,48.99
2022-08-05T22:28:09.595Z,49.29
2022-08-05T22:30:37.518Z,49.31
2022-08-05T22:33:56.996Z,49.20
2022-08-05T22:36:16.955Z,49.42
2022-08-05T22:38:48.652Z,49.50
2022-08-05T22:41:26.453Z,49.53
2022-08-05T22:44:09.740Z,49.58
2022-08-05T22:46:42.316Z,49.93
2022-08-05T22:50:16.343Z,50.05
2022-08-05T22:52:15.487Z,50.02
2022-08-05T22:54:56.889Z,50.52
2022-08-05T22:57:26.926Z,50.81
2022-08-05T23:00:05.383Z,50.60
2022-08-05T23:02:39.963Z,50.82
2022-08-05T23:05:18.940Z,50.70
2022-08-05T23:07:52.739Z,50.14
2022-08-05T23:10:24.283Z,49.67
2022-08-05T23:12:56.021Z,49.93
2022-08-05T23:15:29.650Z,50.03
2022-08-05T23:18:06.025Z,49.49
2022-08-05T23:20:47.253Z,49.86
2022-08-05T23:23:19.261Z,50.17
2022-08-05T23:25:52.619Z,49.99
2022-08-05T23:28:27.750Z,50.22
2022-08-05T23:31:16.683Z,50.04
2022-08-05T23:34:04.518Z,50.23
2022-08-05T23:36:41.549Z,50.30
2022-08-05T23:39:17.430Z,50.33
2022-08-05T23:41:56.469Z,50.17
2022-08-05T23:44:27.993Z,50.41
2022-08-05T23:47:02.432Z,50.75
2022-08-05T23:49:45.553Z,51.05
2022-08-05T23:52:30.538Z,50.78
2022-08-05T23:55:02.607Z,50.91
2022-08-05T23:57:36.658Z,50.78
